Terminal Aerodrome Forecast
Issued by NWS

Home | Current Version | Previous Version | Text Only | Print | Product List | Glossary On
Versions: 1 2 3 4 5 6 7 8 9 10 11 12 13
000
FTUS45 KFGZ 181100
TAFPGA
TAF
KPGA 181131Z 1812/1912 VRB06KT P6SM BKN250
     FM182000 19010G16KT P6SM OVC150
     FM190200 21008KT P6SM BKN080=

USA.gov is the U.S. government's official web portal to all federal, state and local government web resources and services.